KFLG/FLG METAR and TAF weather

Enter ICAO airport designator
Station Type Date Time Source
KFLG METAR 2019/12/05 22:57 UTC NOAA

KFLG 052257Z 23007KT 10SM SCT022 06/00 A3020 RMK AO2 SLP196 T00560000


Station Type Date Time Source
KFLG Decoded METAR 2019/12/05 22:57 UTC NOAA

FLAGSTAFF PULLIAM AIRPORT, AZ, United States (KFLG) 35-08N 111-40W 2134M
Dec 05, 2019 - 05:57 PM EST / 2019.12.05 2257 UTC
Wind: from the SW (230 degrees) at 8 MPH (7 KT):0
Visibility: 10 mile(s):0
Sky conditions: partly cloudy
Temperature: 42.1 F (5.6 C)
Dew Point: 32.0 F (0.0 C)
Relative Humidity: 67%
Pressure (altimeter): 30.2 in. Hg (1022 hPa)
ob: KFLG 052257Z 23007KT 10SM SCT022 06/00 A3020 RMK AO2 SLP196 T00560000
cycle: 23

Station Type Date Time Source
KFLG TAF 2019/12/05 18:36 UTC NOAA

TAF KFLG 051732Z 0518/0618 24010KT P6SM BKN015 OVC025
FM051900 25010KT P6SM SCT035

Example: see airport list